Time;durP1;ratioP1;P1;durP2;ratioP2;P2;SDS_P1;SDS_P2;PMS_P1;PMS_P2;Temp;Humidity;BMP_temperature;BMP_pressure;BME280_temperature;BME280_humidity;BME280_pressure;Samples;Min_cycle;Max_cycle;Signal;HPM_P1;HPM_P2
2022/08/08 00:00:42;;;;;;;19.98;13.90;;;;;;;21.84;100.00;94789.84;6298403;22;20169;-79
2022/08/08 00:03:18;;;;;;;17.65;13.65;;;;;;;21.90;100.00;94788.75;6298676;22;20667;-79
2022/08/08 00:05:52;;;;;;;15.18;12.57;;;;;;;21.90;100.00;94784.22;6298994;22;20674;-78
2022/08/08 00:08:24;;;;;;;17.33;13.93;;;;;;;21.87;100.00;94791.94;6297801;22;20196;-78
2022/08/08 00:10:56;;;;;;;16.10;13.20;;;;;;;21.77;100.00;94782.25;6298595;22;20183;-78
2022/08/08 00:13:32;;;;;;;15.02;12.75;;;;;;;21.86;100.00;94785.84;6298428;22;20152;-78
2022/08/08 00:16:04;;;;;;;15.65;12.85;;;;;;;21.86;100.00;94795.63;6296422;22;20156;-79
2022/08/08 00:18:42;;;;;;;14.25;12.63;;;;;;;21.82;100.00;94790.13;6297761;22;20706;-78
2022/08/08 00:21:11;;;;;;;17.92;13.30;;;;;;;21.67;100.00;94792.19;6298464;22;20152;-78
2022/08/08 00:23:44;;;;;;;16.83;13.52;;;;;;;21.46;100.00;94804.84;6298762;22;20168;-78
2022/08/08 00:26:19;;;;;;;17.58;12.95;;;;;;;21.35;100.00;94798.91;6300092;22;20175;-78
2022/08/08 00:28:52;;;;;;;19.83;13.27;;;;;;;21.32;100.00;94802.09;6298587;22;20160;-78
2022/08/08 00:31:23;;;;;;;20.63;13.75;;;;;;;21.39;100.00;94805.19;6299692;22;20527;-78
2022/08/08 00:35:09;;;;;;;20.88;12.95;;;;;;;21.34;100.00;94804.47;6299424;22;20207;-78
2022/08/08 00:36:56;;;;;;;17.52;12.70;;;;;;;21.20;100.00;94798.25;6298452;22;20175;-78
2022/08/08 00:39:33;;;;;;;16.90;13.18;;;;;;;20.99;100.00;94792.34;6301069;22;20209;-78
2022/08/08 00:42:39;;;;;;;17.40;13.68;;;;;;;20.77;100.00;94805.25;6299388;22;20153;-77
2022/08/08 00:45:41;;;;;;;15.60;13.18;;;;;;;20.89;100.00;94806.44;6300625;22;20183;-77
2022/08/08 00:48:33;;;;;;;15.57;13.30;;;;;;;21.10;100.00;94801.78;6298415;22;20152;-77
2022/08/08 00:51:37;;;;;;;20.17;12.80;;;;;;;21.25;100.00;94792.91;6298834;22;20178;-78
2022/08/08 00:54:36;;;;;;;17.58;13.18;;;;;;;21.28;100.00;94795.00;6298673;22;20167;-77
2022/08/08 00:57:47;;;;;;;15.93;12.40;;;;;;;21.17;100.00;94806.75;6247776;22;20192;-76
2022/08/08 01:00:16;;;;;;;18.42;12.90;;;;;;;21.01;100.00;94800.78;6298097;22;20330;-76
2022/08/08 01:03:16;;;;;;;16.55;13.60;;;;;;;20.98;100.00;94796.06;6302066;22;20884;-76
2022/08/08 01:06:27;;;;;;;21.42;15.48;;;;;;;21.01;100.00;94805.31;6299878;22;20164;-76
2022/08/08 01:09:39;;;;;;;21.23;16.08;;;;;;;21.06;100.00;94800.75;6281452;22;20552;-77
2022/08/08 01:12:35;;;;;;;16.15;12.63;;;;;;;20.90;100.00;94802.75;6297463;22;20160;-77
2022/08/08 01:15:47;;;;;;;14.38;12.88;;;;;;;20.95;100.00;94813.25;6300896;22;20159;-78
2022/08/08 01:18:49;;;;;;;20.17;12.85;;;;;;;21.02;100.00;94809.50;6299597;22;20199;-77
2022/08/08 01:21:32;;;;;;;19.00;14.00;;;;;;;21.03;100.00;94803.16;6301837;22;20167;-77
2022/08/08 01:24:40;;;;;;;20.23;14.85;;;;;;;21.06;100.00;94807.91;6300126;22;20587;-77
2022/08/08 01:27:44;;;;;;;29.05;17.83;;;;;;;21.14;100.00;94809.94;6301746;22;20158;-77
2022/08/08 01:30:46;;;;;;;26.88;17.33;;;;;;;21.14;100.00;94815.25;6299266;22;20251;-77
2022/08/08 01:33:44;;;;;;;22.10;15.68;;;;;;;21.15;100.00;94819.47;6301571;22;20197;-78
2022/08/08 01:36:45;;;;;;;25.17;16.00;;;;;;;21.04;100.00;94828.53;6293309;22;20233;-78
2022/08/08 01:39:30;;;;;;;18.73;14.63;;;;;;;20.99;100.00;94823.28;6302125;22;20160;-78
2022/08/08 01:42:04;;;;;;;17.33;13.70;;;;;;;21.01;100.00;94819.28;6301269;22;20622;-76
2022/08/08 01:44:48;;;;;;;18.88;12.80;;;;;;;20.90;100.00;94829.16;6301798;22;20551;-78
2022/08/08 01:47:28;;;;;;;16.40;13.50;;;;;;;20.97;100.00;94822.78;6301738;22;20860;-77
2022/08/08 01:50:06;;;;;;;20.90;13.30;;;;;;;21.00;100.00;94830.94;6301330;22;20152;-77
2022/08/08 01:52:45;;;;;;;18.70;13.75;;;;;;;21.11;100.00;94826.38;6301536;22;20156;-77
2022/08/08 01:55:18;;;;;;;17.50;14.15;;;;;;;21.08;100.00;94817.16;6300891;22;20163;-76
2022/08/08 01:57:54;;;;;;;20.98;15.45;;;;;;;20.95;100.00;94823.06;6300830;22;20648;-76
2022/08/08 02:00:26;;;;;;;16.65;13.13;;;;;;;20.74;100.00;94822.44;6300557;22;20156;-75
2022/08/08 02:03:16;;;;;;;17.98;12.55;;;;;;;20.38;100.00;94814.00;6301735;22;20152;-76
2022/08/08 02:05:57;;;;;;;17.85;13.38;;;;;;;20.53;100.00;94828.16;6301524;22;20192;-77
2022/08/08 02:08:36;;;;;;;19.88;13.93;;;;;;;20.69;100.00;94830.38;6300391;22;20191;-77
2022/08/08 02:11:14;;;;;;;20.02;14.07;;;;;;;20.75;100.00;94824.00;6301444;22;20171;-77
2022/08/08 02:13:49;;;;;;;17.85;14.00;;;;;;;20.83;100.00;94830.56;6301262;22;20496;-77
2022/08/08 02:16:23;;;;;;;20.92;13.48;;;;;;;20.75;100.00;94829.28;6300285;22;20156;-77
2022/08/08 02:18:57;;;;;;;17.20;13.43;;;;;;;20.68;100.00;94820.13;6301480;22;20579;-77
2022/08/08 02:24:18;;;;;;;17.60;12.90;;;;;;;20.60;100.00;94823.34;6298710;22;20293;-77
2022/08/08 02:26:50;;;;;;;20.00;13.10;;;;;;;20.60;100.00;94833.91;6300196;22;20238;-77
2022/08/08 02:29:35;;;;;;;17.70;13.07;;;;;;;20.69;100.00;94835.66;6300556;22;20160;-77
2022/08/08 02:32:21;;;;;;;14.35;12.60;;;;;;;20.66;100.00;94815.13;6299254;22;20187;-77
2022/08/08 02:35:17;;;;;;;16.63;12.43;;;;;;;20.73;100.00;94835.91;6300869;22;20199;-76
2022/08/08 02:38:11;;;;;;;13.40;11.60;;;;;;;20.79;100.00;94830.31;6299517;22;20260;-76
2022/08/08 02:40:48;;;;;;;17.40;12.45;;;;;;;20.70;100.00;94831.19;6301081;22;20172;-76
2022/08/08 02:44:00;;;;;;;17.40;13.30;;;;;;;20.73;100.00;94835.91;6300456;22;20156;-77
2022/08/08 02:46:47;;;;;;;17.33;12.80;;;;;;;20.73;100.00;94842.00;6298957;22;20164;-77
2022/08/08 02:49:46;;;;;;;19.00;13.00;;;;;;;20.64;100.00;94843.66;6299325;22;20235;-76
2022/08/08 02:52:35;;;;;;;18.38;12.93;;;;;;;20.57;100.00;94834.47;6273265;22;20912;-77
2022/08/08 02:55:31;;;;;;;22.15;12.63;;;;;;;20.56;100.00;94838.94;6300040;22;20619;-77
2022/08/08 02:58:59;;;;;;;20.00;13.40;;;;;;;20.46;100.00;94849.56;6298556;22;20173;-76
2022/08/08 03:02:05;;;;;;;20.58;12.85;;;;;;;20.19;100.00;94834.16;6299994;22;20533;-76
2022/08/08 03:05:01;;;;;;;18.13;12.85;;;;;;;20.06;100.00;94842.66;6273931;22;20250;-76
2022/08/08 03:08:13;;;;;;;18.73;12.43;;;;;;;19.92;100.00;94844.31;6274796;22;20179;-76
2022/08/08 03:11:25;;;;;;;21.63;13.80;;;;;;;19.99;100.00;94846.66;6144422;22;20218;-77
2022/08/08 03:14:25;;;;;;;21.48;13.70;;;;;;;20.03;100.00;94845.84;6143562;23;20607;-77
2022/08/08 03:16:57;;;;;;;17.40;13.90;;;;;;;20.10;100.00;94853.47;6144931;23;20160;-76
2022/08/08 03:19:57;;;;;;;21.63;14.18;;;;;;;20.07;100.00;94848.72;6144945;23;20187;-76
2022/08/08 03:22:23;;;;;;;23.58;14.80;;;;;;;20.07;100.00;94848.72;6143348;22;20694;-75
2022/08/08 03:24:53;;;;;;;23.23;14.30;;;;;;;19.99;100.00;94844.03;6145015;22;20241;-75
2022/08/08 03:27:25;;;;;;;34.40;15.48;;;;;;;20.10;100.00;94858.75;6144203;22;20172;-76
2022/08/08 03:29:55;;;;;;;28.38;16.52;;;;;;;20.04;100.00;94852.69;6144443;22;20159;-76
2022/08/08 03:35:07;;;;;;;31.63;17.75;;;;;;;19.97;100.00;94848.78;6144228;22;20245;-78
2022/08/08 03:37:35;;;;;;;36.55;17.88;;;;;;;20.01;100.00;94855.88;6144540;22;20187;-73
2022/08/08 03:40:05;;;;;;;29.17;16.40;;;;;;;19.93;100.00;94851.19;6143000;22;20623;-73
2022/08/08 03:42:32;;;;;;;34.03;16.83;;;;;;;19.94;100.00;94859.88;6143715;23;20160;-74
2022/08/08 03:45:02;;;;;;;32.10;16.63;;;;;;;19.89;100.00;94857.25;6144373;22;20172;-73
2022/08/08 03:47:28;;;;;;;29.55;16.77;;;;;;;19.93;100.00;94855.66;6144047;23;20250;-73
2022/08/08 03:49:55;;;;;;;28.95;17.17;;;;;;;20.13;100.00;94868.75;6143442;23;20168;-74
2022/08/08 03:52:22;;;;;;;32.83;17.23;;;;;;;20.21;100.00;94868.97;6144059;22;20171;-74
2022/08/08 03:54:49;;;;;;;32.88;17.95;;;;;;;20.18;100.00;94868.72;6144098;22;20553;-74
2022/08/08 03:57:18;;;;;;;28.92;17.13;;;;;;;20.03;100.00;94874.88;6113434;22;20175;-74
2022/08/08 03:59:46;;;;;;;30.85;17.25;;;;;;;20.01;100.00;94871.72;6142995;22;20196;-72
2022/08/08 04:02:19;;;;;;;32.25;17.05;;;;;;;20.05;100.00;94879.88;6140494;22;20215;-73
2022/08/08 04:04:46;;;;;;;30.73;17.80;;;;;;;19.99;100.00;94865.94;6142176;22;20167;-73
2022/08/08 04:07:13;;;;;;;26.30;15.57;;;;;;;20.03;100.00;94874.09;6142782;22;20781;-73
2022/08/08 04:09:40;;;;;;;21.42;15.27;;;;;;;20.04;100.00;94871.19;6258707;22;20210;-73
2022/08/08 04:12:07;;;;;;;22.92;14.95;;;;;;;20.05;100.00;94870.13;6297120;22;20590;-73
2022/08/08 04:14:35;;;;;;;23.02;14.90;;;;;;;20.07;100.00;94872.47;6297699;22;20175;-73
2022/08/08 04:17:03;;;;;;;18.95;13.68;;;;;;;20.12;100.00;94880.38;6297640;22;20165;-72
2022/08/08 04:19:30;;;;;;;21.50;12.85;;;;;;;20.11;100.00;94884.88;6298954;22;20223;-74
2022/08/08 04:21:57;;;;;;;16.80;12.82;;;;;;;20.14;100.00;94884.34;6296882;22;20522;-74
2022/08/08 04:24:24;;;;;;;17.17;12.95;;;;;;;20.18;100.00;94885.34;6297607;22;20168;-74
2022/08/08 04:26:50;;;;;;;17.27;13.00;;;;;;;20.27;100.00;94886.41;6298149;22;20176;-73
2022/08/08 04:29:17;;;;;;;15.95;12.98;;;;;;;20.36;100.00;94886.63;6297771;22;20950;-73
2022/08/08 04:31:45;;;;;;;20.00;13.30;;;;;;;20.40;100.00;94895.59;6298556;22;20818;-73
2022/08/08 04:34:12;;;;;;;17.95;13.93;;;;;;;20.36;100.00;94889.25;6296442;22;20253;-74
2022/08/08 04:36:39;;;;;;;19.15;13.55;;;;;;;20.40;100.00;94894.78;6297896;22;20204;-74
2022/08/08 04:39:06;;;;;;;19.70;12.93;;;;;;;20.41;100.00;94891.06;6297317;22;20199;-73
2022/08/08 04:41:32;;;;;;;18.25;13.55;;;;;;;20.39;100.00;94888.72;6298140;22;20168;-73
2022/08/08 04:43:59;;;;;;;20.90;13.35;;;;;;;20.43;100.00;94891.59;6296902;22;20175;-73
2022/08/08 04:46:26;;;;;;;19.13;14.38;;;;;;;20.44;100.00;94901.88;6297362;22;20179;-73
2022/08/08 04:48:54;;;;;;;21.15;14.75;;;;;;;20.46;100.00;94899.75;6297037;22;20171;-72
2022/08/08 04:51:21;;;;;;;16.55;14.05;;;;;;;20.52;100.00;94901.31;6298123;22;20903;-73
2022/08/08 04:53:48;;;;;;;19.30;14.43;;;;;;;20.52;100.00;94900.53;6298066;22;20168;-73
2022/08/08 04:56:15;;;;;;;17.83;13.82;;;;;;;20.56;100.00;94901.56;6296667;22;20176;-73
2022/08/08 04:58:42;;;;;;;19.10;14.75;;;;;;;20.59;100.00;94911.56;6297355;22;20753;-73
2022/08/08 05:01:09;;;;;;;18.35;14.50;;;;;;;20.64;100.00;94909.69;6297153;22;20172;-73
2022/08/08 05:03:36;;;;;;;18.58;14.77;;;;;;;20.74;100.00;94908.84;6297915;22;20165;-78
2022/08/08 05:06:05;;;;;;;20.15;14.38;;;;;;;20.95;100.00;94905.75;6296300;22;20172;-74
2022/08/08 05:08:32;;;;;;;23.02;14.98;;;;;;;20.96;100.00;94911.84;6296959;22;20206;-72
2022/08/08 05:10:59;;;;;;;22.52;15.68;;;;;;;21.14;100.00;94903.28;6297478;22;20553;-74
2022/08/08 05:13:25;;;;;;;25.02;15.55;;;;;;;21.14;100.00;94898.00;6297208;22;20190;-73
2022/08/08 05:15:52;;;;;;;19.40;14.77;;;;;;;21.29;100.00;94903.16;6298148;22;20171;-74
2022/08/08 05:18:19;;;;;;;17.35;13.73;;;;;;;21.38;100.00;94914.72;6296530;22;20627;-73
2022/08/08 05:20:46;;;;;;;17.58;14.63;;;;;;;21.41;100.00;94916.78;6297618;22;20179;-74
2022/08/08 05:23:14;;;;;;;18.27;14.50;;;;;;;21.36;100.00;94916.81;6297993;22;20663;-73
2022/08/08 05:25:41;;;;;;;19.58;14.02;;;;;;;21.41;100.00;94910.72;6298715;22;20168;-73
2022/08/08 05:28:08;;;;;;;22.52;13.90;;;;;;;21.47;100.00;94917.53;6296815;22;20195;-73
2022/08/08 05:30:38;;;;;;;18.85;13.48;;;;;;;21.48;100.00;94917.25;6298123;22;20514;-73
2022/08/08 05:33:04;;;;;;;18.40;13.43;;;;;;;21.55;100.00;94916.13;6298971;22;20191;-72
2022/08/08 05:35:35;;;;;;;18.25;13.40;;;;;;;21.51;97.24;94900.03;6292315;22;20502;-73
2022/08/08 05:38:05;;;;;;;22.10;12.35;;;;;;;21.67;96.15;94912.03;6296988;22;20155;-76
2022/08/08 05:40:34;;;;;;;14.48;11.50;;;;;;;21.79;96.05;94914.31;6298301;22;20160;-73
2022/08/08 05:43:04;;;;;;;18.38;11.35;;;;;;;21.87;94.30;94919.81;6298389;22;20204;-73
2022/08/08 05:45:35;;;;;;;33.38;12.40;;;;;;;22.00;93.68;94916.47;6298790;22;20195;-82
2022/08/08 05:48:03;;;;;;;15.15;10.75;;;;;;;22.06;91.81;94919.84;6297736;22;20196;-73
2022/08/08 05:50:30;;;;;;;15.07;11.07;;;;;;;22.04;91.94;94911.41;6297828;22;20176;-73
2022/08/08 05:52:57;;;;;;;16.25;11.07;;;;;;;22.06;93.17;94919.84;6298610;22;20640;-74
2022/08/08 05:55:24;;;;;;;12.52;10.88;;;;;;;22.09;92.28;94921.91;6298826;22;20174;-73
2022/08/08 05:57:53;;;;;;;15.25;10.57;;;;;;;22.14;91.58;94924.50;6297198;22;20168;-73
2022/08/08 06:00:20;;;;;;;17.08;9.98;;;;;;;22.21;90.32;94919.66;6297438;22;20226;-73
2022/08/08 06:05:34;;;;;;;13.05;10.30;;;;;;;22.38;90.06;94924.47;6299734;22;20152;-73
2022/08/08 06:08:02;;;;;;;14.43;10.85;;;;;;;22.42;90.72;94920.97;6298101;22;20226;-74
2022/08/08 06:10:32;;;;;;;14.23;9.90;;;;;;;22.47;88.85;94922.78;6300113;22;20218;-75
2022/08/08 06:13:01;;;;;;;12.77;9.40;;;;;;;22.52;89.28;94918.19;6299594;22;20175;-73
2022/08/08 06:15:29;;;;;;;13.52;9.38;;;;;;;22.60;87.77;94914.09;6300196;22;20160;-73
2022/08/08 06:17:58;;;;;;;12.93;9.77;;;;;;;22.73;87.32;94920.59;6299426;22;20168;-74
2022/08/08 06:20:25;;;;;;;13.55;9.45;;;;;;;22.88;85.21;94926.47;6299608;22;20188;-75
2022/08/08 06:22:53;;;;;;;15.98;9.80;;;;;;;22.99;84.76;94924.44;6299942;22;20174;-73
2022/08/08 06:25:20;;;;;;;11.02;9.57;;;;;;;23.10;83.98;94926.66;6299565;22;20168;-76
2022/08/08 06:27:55;;;;;;;14.00;9.77;;;;;;;23.06;84.23;94925.66;6307261;22;20156;-79
2022/08/08 06:30:24;;;;;;;12.45;9.60;;;;;;;22.98;84.56;94925.50;6298336;22;20159;-73
2022/08/08 06:32:52;;;;;;;15.13;9.77;;;;;;;23.05;84.74;94940.00;6298116;22;20175;-72
2022/08/08 06:35:19;;;;;;;16.33;9.75;;;;;;;23.10;83.95;94939.13;6299673;22;20176;-72
2022/08/08 06:37:51;;;;;;;12.43;9.02;;;;;;;23.14;84.01;94940.91;6299845;22;20168;-72
2022/08/08 06:40:19;;;;;;;10.50;9.13;;;;;;;23.25;83.65;94933.59;6298474;22;20208;-72
2022/08/08 06:42:53;;;;;;;13.60;9.82;;;;;;;23.52;82.07;94938.97;6299800;22;20597;-72
2022/08/08 06:45:21;;;;;;;13.07;9.23;;;;;;;23.75;80.66;94939.16;6299211;22;20166;-71
2022/08/08 06:47:50;;;;;;;11.25;8.07;;;;;;;24.00;79.33;94939.47;6293186;22;20676;-72
2022/08/08 06:50:17;;;;;;;11.80;8.82;;;;;;;24.13;78.93;94941.34;6294331;22;20164;-71
2022/08/08 06:52:44;;;;;;;10.80;9.15;;;;;;;24.16;79.57;94942.63;6295346;22;21144;-71
2022/08/08 06:55:11;;;;;;;13.52;9.52;;;;;;;24.06;79.29;94942.81;6295739;22;20655;-72
2022/08/08 06:57:38;;;;;;;12.88;9.57;;;;;;;24.07;78.88;94949.69;6296310;22;20175;-72
2022/08/08 07:00:07;;;;;;;12.02;8.85;;;;;;;24.12;78.42;94941.66;6295155;22;20203;-72
2022/08/08 07:02:35;;;;;;;12.10;9.55;;;;;;;24.19;78.26;94948.13;6295787;22;20168;-73
2022/08/08 07:05:06;;;;;;;15.20;9.48;;;;;;;24.25;77.75;94946.16;6296337;22;20234;-83
2022/08/08 07:07:50;;;;;;;12.43;9.23;;;;;;;24.25;77.07;94944.31;6296434;22;20176;-72
2022/08/08 07:10:19;;;;;;;14.23;9.48;;;;;;;24.28;76.92;94942.91;6295622;22;20196;-72
2022/08/08 07:12:53;;;;;;;13.82;9.63;;;;;;;24.24;77.87;94955.25;6296394;22;20168;-73
2022/08/08 07:15:38;;;;;;;13.82;9.93;;;;;;;24.34;77.41;94944.41;6296998;22;20171;-73
2022/08/08 07:18:06;;;;;;;12.77;10.05;;;;;;;24.36;77.69;94946.78;6296203;22;20192;-72
2022/08/08 07:20:38;;;;;;;11.50;9.80;;;;;;;24.49;76.22;94946.75;6295924;22;20329;-73
2022/08/08 07:23:14;;;;;;;13.48;10.00;;;;;;;24.66;76.06;94949.56;6296046;22;20164;-74
2022/08/08 07:25:44;;;;;;;13.50;9.65;;;;;;;24.82;74.56;94944.72;6296140;22;20163;-74
2022/08/08 07:28:14;;;;;;;15.07;9.90;;;;;;;24.90;73.46;94949.34;6296085;22;20172;-77
2022/08/08 07:30:41;;;;;;;17.45;9.15;;;;;;;24.92;72.61;94943.72;6297212;22;20160;-84
2022/08/08 07:33:10;;;;;;;15.65;9.45;;;;;;;24.89;73.07;94949.66;6298782;22;20172;-71
2022/08/08 07:35:39;;;;;;;13.75;10.18;;;;;;;24.97;73.44;94952.38;6295681;22;20233;-72
2022/08/08 07:38:08;;;;;;;13.48;9.10;;;;;;;25.11;72.70;94947.00;6295760;22;20168;-73
2022/08/08 07:40:36;;;;;;;12.60;9.77;;;;;;;25.22;72.75;94951.78;6295791;22;20203;-72
2022/08/08 07:43:05;;;;;;;15.93;11.00;;;;;;;25.31;69.91;94949.97;6296157;22;20176;-73
2022/08/08 07:45:32;;;;;;;10.70;9.25;;;;;;;25.22;69.46;94945.69;6295978;22;20168;-73
2022/08/08 07:47:59;;;;;;;12.27;9.32;;;;;;;25.26;70.14;94944.00;6294082;22;20179;-73
2022/08/08 07:50:26;;;;;;;10.13;8.77;;;;;;;25.34;68.95;94941.38;6294642;22;20171;-72
2022/08/08 07:52:59;;;;;;;12.68;8.90;;;;;;;25.39;68.03;94946.59;6296659;22;20626;-73
2022/08/08 07:55:27;;;;;;;11.85;8.63;;;;;;;25.47;67.33;94946.94;6296270;22;20163;-73
2022/08/08 07:58:07;;;;;;;11.60;8.95;;;;;;;25.55;67.06;94938.25;6296442;22;20165;-73
2022/08/08 08:00:40;;;;;;;12.82;8.20;;;;;;;25.65;65.59;94943.34;6295251;22;20686;-72
2022/08/08 08:03:10;;;;;;;12.88;9.77;;;;;;;25.73;64.98;94938.06;6296333;22;20160;-72
2022/08/08 08:05:41;;;;;;;10.93;7.88;;;;;;;25.80;63.72;94940.28;6295944;22;20183;-72
2022/08/08 08:08:16;;;;;;;12.57;7.32;;;;;;;25.85;63.07;94935.63;6295090;22;20168;-72
2022/08/08 08:10:45;;;;;;;10.68;7.90;;;;;;;25.98;62.41;94933.13;6295956;22;20187;-72
2022/08/08 08:13:21;;;;;;;10.77;7.38;;;;;;;26.11;61.23;94935.72;6296830;22;20172;-72
2022/08/08 08:15:54;;;;;;;11.30;7.57;;;;;;;26.35;60.82;94930.78;6296768;22;20156;-72
2022/08/08 08:18:23;;;;;;;10.77;7.72;;;;;;;26.38;60.03;94930.16;6295481;22;20161;-72
2022/08/08 08:20:52;;;;;;;9.25;7.22;;;;;;;26.40;59.96;94921.88;6296247;22;20271;-71
2022/08/08 08:23:21;;;;;;;10.18;7.13;;;;;;;26.48;60.26;94921.09;6296866;22;20549;-72
2022/08/08 08:25:48;;;;;;;11.23;7.88;;;;;;;26.50;60.48;94921.56;6295729;22;20177;-70
2022/08/08 08:28:14;;;;;;;9.18;6.90;;;;;;;26.67;59.38;94926.94;6294885;22;20172;-72
2022/08/08 08:30:41;;;;;;;8.50;6.82;;;;;;;26.75;57.84;94923.50;6295180;22;20221;-73
2022/08/08 08:33:08;;;;;;;7.72;6.10;;;;;;;26.78;56.82;94922.84;6296099;22;20600;-73
2022/08/08 08:35:35;;;;;;;13.48;6.00;;;;;;;26.93;55.75;94918.97;6295863;22;20496;-72
2022/08/08 08:38:02;;;;;;;11.95;6.03;;;;;;;27.05;54.46;94914.59;6295012;22;20813;-71
2022/08/08 08:40:31;;;;;;;9.60;5.72;;;;;;;27.16;53.72;94916.94;6294943;22;20188;-72
2022/08/08 08:42:59;;;;;;;8.73;5.88;;;;;;;27.10;52.87;94913.63;6296042;22;20568;-71
2022/08/08 08:45:27;;;;;;;6.82;5.40;;;;;;;27.00;53.54;94909.41;6295463;22;20230;-73
2022/08/08 08:47:54;;;;;;;9.98;5.97;;;;;;;27.02;53.86;94915.22;6295284;22;20503;-72
2022/08/08 08:50:23;;;;;;;9.75;5.88;;;;;;;26.97;53.52;94911.91;6295156;22;20172;-71
2022/08/08 08:52:52;;;;;;;10.65;6.15;;;;;;;27.23;53.61;94911.91;6296262;22;20172;-73
2022/08/08 08:55:20;;;;;;;8.82;5.80;;;;;;;27.37;52.89;94912.50;6295452;22;20179;-72
2022/08/08 08:57:52;;;;;;;6.80;5.40;;;;;;;27.52;53.18;94910.16;6295268;22;20171;-72
2022/08/08 09:00:19;;;;;;;7.38;4.82;;;;;;;27.55;49.96;94906.84;6293866;22;20211;-72
2022/08/08 09:02:48;;;;;;;10.48;4.82;;;;;;;27.65;49.94;94902.28;6294464;22;20987;-72
2022/08/08 09:05:15;;;;;;;8.52;5.55;;;;;;;27.60;50.53;94897.88;6294139;22;20203;-73
2022/08/08 09:07:44;;;;;;;19.65;4.95;;;;;;;27.64;49.71;94901.50;6294908;22;20187;-73
2022/08/08 09:10:14;;;;;;;9.55;5.63;;;;;;;27.56;50.18;94894.28;6294895;22;20200;-72
2022/08/08 09:12:45;;;;;;;6.47;5.30;;;;;;;27.67;48.55;94886.72;6295801;22;20192;-72
2022/08/08 09:15:13;;;;;;;6.70;5.40;;;;;;;27.93;48.32;94890.06;6296028;22;20160;-73
2022/08/08 09:17:41;;;;;;;8.95;4.80;;;;;;;28.29;48.50;94889.59;6295526;22;20256;-73
2022/08/08 09:20:09;;;;;;;7.68;5.05;;;;;;;28.41;46.94;94895.03;6294362;22;20192;-73
2022/08/08 09:22:36;;;;;;;7.50;4.50;;;;;;;28.32;46.14;94886.28;6294805;22;20169;-73
2022/08/08 09:25:05;;;;;;;7.13;4.25;;;;;;;28.34;45.61;94879.47;6295134;22;20631;-73
2022/08/08 09:27:32;;;;;;;7.20;4.10;;;;;;;28.42;45.47;94878.69;6296400;22;20381;-73
2022/08/08 09:30:02;;;;;;;6.80;4.22;;;;;;;28.82;45.10;94871.00;6295151;22;20165;-74
2022/08/08 09:32:42;;;;;;;6.95;3.50;;;;;;;29.35;43.37;94874.81;6295476;22;20163;-73
2022/08/08 09:35:11;;;;;;;8.93;4.32;;;;;;;29.26;44.11;94872.22;6295854;22;20164;-73
2022/08/08 09:37:46;;;;;;;7.50;4.00;;;;;;;29.44;43.36;94875.53;6297867;22;20787;-73
2022/08/08 09:40:16;;;;;;;7.25;4.38;;;;;;;29.42;43.50;94872.38;6296171;22;20203;-72
2022/08/08 09:42:44;;;;;;;15.45;4.82;;;;;;;29.32;44.59;94867.44;6297877;22;20164;-72
2022/08/08 09:45:18;;;;;;;6.20;4.15;;;;;;;29.06;43.95;94870.34;6298306;22;20222;-72
2022/08/08 09:47:48;;;;;;;10.02;3.83;;;;;;;29.31;43.25;94872.03;6297889;22;20169;-73
2022/08/08 09:50:17;;;;;;;10.05;3.95;;;;;;;29.52;42.29;94858.56;6296962;22;20168;-71
2022/08/08 09:52:50;;;;;;;7.75;4.68;;;;;;;29.69;42.35;94853.81;6297974;22;21076;-72
2022/08/08 09:55:17;;;;;;;8.75;3.53;;;;;;;29.92;41.86;94858.75;6297870;22;20235;-71
2022/08/08 09:57:53;;;;;;;8.32;3.95;;;;;;;29.85;40.97;94848.56;6298051;22;20271;-73
2022/08/08 10:00:35;;;;;;;6.22;3.85;;;;;;;29.57;41.48;94847.63;6297380;22;20259;-71
2022/08/08 10:03:18;;;;;;;7.90;4.03;;;;;;;29.62;41.73;94853.56;6296060;22;20176;-73
2022/08/08 10:05:48;;;;;;;4.97;3.80;;;;;;;29.91;41.81;94849.91;6297608;22;20796;-73
2022/08/08 10:08:18;;;;;;;7.75;3.80;;;;;;;30.02;41.12;94855.59;6296743;22;20200;-72
2022/08/08 10:10:46;;;;;;;11.55;4.20;;;;;;;30.47;39.94;94847.44;6296138;22;20164;-72
2022/08/08 10:13:21;;;;;;;12.00;4.32;;;;;;;30.60;39.95;94844.41;6296523;22;20241;-73
2022/08/08 10:15:51;;;;;;;4.10;3.40;;;;;;;30.20;39.06;94838.19;6295257;22;20168;-72
2022/08/08 10:18:26;;;;;;;8.90;4.40;;;;;;;29.73;41.19;94841.28;6293602;22;20255;-72
2022/08/08 10:20:58;;;;;;;11.70;4.72;;;;;;;29.75;41.36;94839.06;6296114;22;20237;-72
2022/08/08 10:23:42;;;;;;;6.57;3.55;;;;;;;29.92;40.66;94831.94;6295722;22;20161;-74
2022/08/08 10:26:15;;;;;;;7.50;3.92;;;;;;;30.17;40.22;94820.06;6294338;22;20156;-72
2022/08/08 10:28:53;;;;;;;8.75;3.58;;;;;;;30.35;38.69;94819.50;6295467;22;20160;-73
2022/08/08 10:34:14;;;;;;;4.75;3.83;;;;;;;29.97;37.74;94823.66;6294881;22;20240;-73
2022/08/08 10:36:42;;;;;;;8.95;5.50;;;;;;;30.15;37.81;94815.06;6295552;22;20156;-72
2022/08/08 10:39:10;;;;;;;8.93;5.03;;;;;;;30.19;37.46;94823.19;6296040;22;21006;-73
2022/08/08 10:41:37;;;;;;;9.70;5.57;;;;;;;29.66;39.00;94827.66;6296172;22;20638;-72
2022/08/08 10:44:05;;;;;;;4.80;3.25;;;;;;;29.31;39.30;94831.84;6294632;22;20172;-73
2022/08/08 10:46:34;;;;;;;6.13;3.80;;;;;;;29.05;39.58;94820.56;6295162;22;20187;-73
2022/08/08 10:49:00;;;;;;;4.82;3.40;;;;;;;29.11;40.48;94821.94;6294987;22;20168;-75
2022/08/08 10:51:30;;;;;;;5.32;3.60;;;;;;;29.11;40.44;94805.88;6296353;22;20165;-73
2022/08/08 10:53:57;;;;;;;6.80;3.15;;;;;;;29.56;39.99;94819.25;6295534;22;20168;-73
2022/08/08 10:56:24;;;;;;;7.00;3.25;;;;;;;30.10;38.58;94811.81;6295265;22;20168;-73
2022/08/08 10:58:57;;;;;;;3.88;3.45;;;;;;;30.16;38.61;94811.25;6295827;22;20167;-73
2022/08/08 11:01:28;;;;;;;7.22;3.17;;;;;;;30.32;38.60;94809.44;6296502;22;20225;-73
2022/08/08 11:03:57;;;;;;;7.65;3.42;;;;;;;31.01;36.13;94803.00;6294731;22;20156;-73
2022/08/08 11:06:30;;;;;;;4.30;3.50;;;;;;;31.03;36.58;94806.13;6294999;22;20168;-73
2022/08/08 11:09:01;;;;;;;5.00;3.08;;;;;;;31.14;36.49;94809.09;6243478;22;1210082;-73
2022/08/08 11:11:36;;;;;;;5.47;3.15;;;;;;;30.84;35.69;94803.28;6296905;22;20175;-73
2022/08/08 11:14:03;;;;;;;6.57;3.25;;;;;;;31.05;35.97;94806.56;6296816;22;20167;-73
2022/08/08 11:16:32;;;;;;;4.35;3.50;;;;;;;31.17;36.22;94797.66;6296582;22;20245;-73
2022/08/08 11:19:01;;;;;;;6.35;3.30;;;;;;;31.17;35.44;94803.81;6296139;22;20959;-73
2022/08/08 11:21:33;;;;;;;8.27;3.50;;;;;;;30.85;36.66;94802.16;6297091;22;20192;-72
2022/08/08 11:24:04;;;;;;;5.75;3.42;;;;;;;30.61;36.18;94794.97;6295684;22;20188;-72
2022/08/08 11:26:34;;;;;;;8.57;3.47;;;;;;;29.93;37.12;94787.94;6296126;22;20168;-73
2022/08/08 11:29:03;;;;;;;5.93;3.47;;;;;;;29.75;39.30;94803.44;6296887;22;20179;-73
2022/08/08 11:31:35;;;;;;;4.53;3.40;;;;;;;30.13;38.56;94795.06;6296065;22;20545;-72
2022/08/08 11:34:04;;;;;;;3.88;3.38;;;;;;;30.64;37.71;94785.44;6294648;22;20162;-72
2022/08/08 11:36:33;;;;;;;9.70;3.70;;;;;;;30.78;36.49;94788.53;6296453;22;20180;-72
2022/08/08 11:39:02;;;;;;;3.97;3.30;;;;;;;30.47;36.54;94773.09;6296569;22;20183;-72
2022/08/08 11:41:29;;;;;;;4.82;3.33;;;;;;;30.24;36.87;94780.84;6296800;22;20663;-72
2022/08/08 11:43:57;;;;;;;6.47;3.58;;;;;;;30.36;37.83;94780.03;6296341;22;20168;-72
2022/08/08 11:46:25;;;;;;;5.13;3.35;;;;;;;30.20;37.53;94774.59;6296181;22;20246;-73
2022/08/08 11:48:52;;;;;;;6.28;3.70;;;;;;;29.65;39.65;94772.47;6296530;22;20526;-73
2022/08/08 11:51:22;;;;;;;7.75;3.83;;;;;;;30.43;38.68;94774.88;6297544;22;20175;-73
2022/08/08 11:53:51;;;;;;;7.70;3.60;;;;;;;30.92;37.89;94787.00;6296643;22;20474;-72
2022/08/08 11:56:20;;;;;;;8.05;3.15;;;;;;;31.22;37.35;94781.28;6296301;22;20987;-72
2022/08/08 11:58:47;;;;;;;7.85;3.85;;;;;;;30.65;38.03;94779.72;6296196;22;20172;-69
2022/08/08 12:01:14;;;;;;;10.05;4.05;;;;;;;30.11;39.00;94775.81;6296787;22;20200;-71